user_mobilelogo

Nordholz:

METAR:

2018/02/20 08:20 ETMN 200820Z 08006KT 3200 BR FEW060 M00/M02 Q1020 YLO YLO BECMG GRN

TAF:

2018/02/20 09:36 TAF ETMN 200803Z 2009/2018 08005KT 3000 BR SCT060 BECMG 2009/2010 08005KT 6000 NSW FEW020 SCT060 BECMG 2010/2012 08005KT 8000 NSW SCT020 BKN080

Wind EDXN:

20.02. 07:40z 070/06kt
20.02. 07:50z 080/06kt
20.02. 08:00z 080/06kt
20.02. 08:10z 080/06kt
20.02. 08:20z 080/06kt
20.02. 08:30z 080/07kt
20.02. 08:40z 080/07kt
20.02. 08:50z 080/08kt
20.02. 09:00z 080/07kt
20.02. 09:10z 080/07kt

Bremen:

METAR:

2018/02/20 08:50 EDDW 200850Z 09004KT 060V120 7000 NSC 01/M02 Q1020 NOSIG

TAF:

2018/02/20 06:27 TAF EDDW 200500Z 2006/2106 08002KT 4500 BR FEW025 PROB40 TEMPO 2006/2008 0600 FZFG BECMG 2007/2009 9999 BECMG 2008/2011 06007KT TEMPO 2018/2106 04002KT

Hamburg:

METAR:

2018/02/20 08:50 EDDH 200850Z 07003KT 7000 NSC 01/M02 Q1020 NOSIG

TAF:

2018/02/20 06:27 TAF EDDH 200500Z 2006/2112 08002KT 4000 BR FEW025 TEMPO 2006/2009 1400 BCFG BECMG 2006/2009 9999 BECMG 2008/2011 06007KT TEMPO 2018/2112 04002KT

Hannover:

METAR:

2018/02/20 08:50 EDDV 200850Z 07005KT 9000 NSC M00/M03 Q1019 NOSIG

TAF:

2018/02/20 06:27 TAF EDDV 200500Z 2006/2106 08002KT 8000 FEW030 TEMPO 2006/2009 2500 MIFG BECMG 2008/2011 06007KT TEMPO 2018/2106 04002KT

 

Wikipedia Artikel: METAR - TAF

Daten von Aviation Weather Center der NOAA, es kann keine Garantie für Aktualität und Richtigkeit der Daten übernommen werden.

Die Nutzung dieser Daten zur Flugplanung ist nicht zulässig!